Station Historical Data
Daily Summary for January 13, 2018 Units:  English    Metric   Both
« Previous Day
Next Day »
Daily Weekly Monthly Yearly Custom
  High: Low: Average:
Temperature: TemperatureC °F -0.4 °F 0.9 °F
Dew Point: DewpointC °F -4.4 °F -1.5 °F
Humidity: Humidity % 70 % 84 %
Wind Speed: WindSpeedKMH mph -1608.8 mph -4.4 mph
Wind Gust: WindSpeedGustKMH mph - -
Wind:- - South
Pressure: PressurehPa in -3386.0 in -
Precipitation: 0.0 in    
Historical Graphs
 
 
Tabular Data for January 13, 2018
Time Temperature Dew Point Pressure Wind Wind Speed Wind Gust Humidity Rainfall Rate (Hourly) solar Conditions
TemperatureC °F DewpointC °F PressurehPa in Calm     Humidity % HourlyPrecipMM in SoftwareType W/m2 Conditions
00:01 3.1 °F 2.2 °F 1029.0 in Calm     94 % 0.0 in meteobridge W/m2
00:07 3.1 °F 2.2 °F 1029.0 in WNW 2.1 mph 2.1 mph 94 % 0.0 in meteobridge W/m2
00:13 3.1 °F 2.2 °F 1029.0 in Calm     94 % 0.0 in meteobridge W/m2
00:19 3.1 °F 2.2 °F 1028.0 in Calm     94 % 0.0 in meteobridge W/m2
00:25 3.1 °F 2.2 °F 1028.0 in Calm     94 % 0.0 in meteobridge W/m2
00:31 3.1 °F 2.2 °F 1028.0 in Calm     94 % 0.0 in meteobridge W/m2
00:37 3.1 °F 2.2 °F 1028.0 in Calm     94 % 0.0 in meteobridge W/m2
00:43 3.1 °F 2.2 °F 1028.0 in Calm     94 % 0.0 in meteobridge W/m2
00:57 3.0 °F 2.1 °F 1028.0 in Calm     94 % 0.0 in meteobridge W/m2
01:02 3.0 °F 2.1 °F 1028.0 in Calm   2.6 mph 94 % 0.0 in meteobridge W/m2
01:09 2.9 °F 2.0 °F -3386.0 in Calm     94 % 0.0 in meteobridge W/m2
01:16 2.9 °F 2.0 °F 1028.0 in Calm   2.1 mph 94 % 0.0 in meteobridge W/m2
01:22 3.0 °F 2.1 °F 1028.0 in Calm     94 % 0.0 in meteobridge W/m2
01:28 2.9 °F 2.0 °F 1028.0 in Calm     94 % 0.0 in meteobridge W/m2
01:34 3.0 °F 2.1 °F 1028.0 in Calm     94 % 0.0 in meteobridge W/m2
01:40 3.0 °F 2.1 °F 1028.0 in Calm     94 % 0.0 in meteobridge W/m2
01:46 3.0 °F 2.1 °F 1028.0 in West 2.6 mph 6.4 mph 94 % 0.0 in meteobridge W/m2
01:52 2.9 °F 2.0 °F 1028.0 in WSW 3.5 mph 3.5 mph 94 % 0.0 in meteobridge W/m2
01:58 2.9 °F 2.0 °F 1028.0 in WSW 1.4 mph 1.4 mph 94 % 0.0 in meteobridge W/m2
02:05 3.0 °F 2.1 °F 1028.0 in West 1.4 mph 1.4 mph 94 % 0.0 in meteobridge W/m2
02:12 2.8 °F 1.9 °F 1028.0 in Calm   4.3 mph 94 % 0.0 in meteobridge W/m2
02:18 2.8 °F 1.9 °F 1028.0 in Calm   5.8 mph 94 % 0.0 in meteobridge W/m2
02:24 2.7 °F 1.8 °F 1028.0 in WSW 10.1 mph 10.1 mph 94 % 0.0 in meteobridge W/m2
02:30 2.6 °F 1.7 °F 1028.0 in Calm   5.8 mph 94 % 0.0 in meteobridge W/m2
02:36 2.7 °F 1.8 °F 1028.0 in Calm     94 % 0.0 in meteobridge W/m2
02:48 2.7 °F 1.8 °F 1028.0 in Calm     94 % 0.0 in meteobridge W/m2
02:58 2.5 °F 1.6 °F 1028.0 in Calm     94 % 0.0 in meteobridge W/m2
03:03 2.4 °F 1.5 °F 1028.0 in Calm   10.1 mph 94 % 0.0 in meteobridge W/m2
03:08 2.2 °F 1.3 °F 1028.0 in West 5.5 mph 5.5 mph 94 % 0.0 in meteobridge W/m2
03:21 2.0 °F 1.1 °F 1028.0 in Calm     94 % 0.0 in meteobridge W/m2
03:27 1.9 °F 1.0 °F 1028.0 in West 6.1 mph 6.1 mph 94 % 0.0 in meteobridge W/m2
03:33 2.0 °F 1.3 °F 1028.0 in WSW 3.2 mph 4.0 mph 95 % 0.0 in meteobridge W/m2
03:39 1.9 °F 1.2 °F 1028.0 in WSW 6.1 mph 6.1 mph 95 % 0.0 in meteobridge W/m2
03:47 1.8 °F 1.1 °F 1028.0 in NNE 2.1 mph 2.1 mph 95 % 0.0 in meteobridge W/m2
03:53 1.8 °F 1.1 °F 1028.0 in WSW 5.5 mph 5.5 mph 95 % 0.0 in meteobridge W/m2
04:01 1.7 °F 1.0 °F 1028.0 in West 4.7 mph 4.7 mph 95 % 0.0 in meteobridge W/m2
04:07 1.7 °F 0.8 °F 1028.0 in Calm   1.8 mph 94 % 0.0 in meteobridge W/m2
04:14 1.8 °F 0.9 °F 1028.0 in WSW 4.0 mph 4.0 mph 94 % 0.0 in meteobridge W/m2
04:27 1.6 °F 0.6 °F 1028.0 in Calm   2.6 mph 93 % 0.0 in meteobridge W/m2
04:34 1.7 °F 0.5 °F 1028.0 in WSW 6.1 mph 6.1 mph 92 % 0.0 in meteobridge W/m2
04:40 1.7 °F 0.5 °F 1028.0 in WNW 3.5 mph 3.5 mph 92 % 0.0 in meteobridge W/m2
04:46 1.6 °F 0.3 °F 1028.0 in Calm     91 % 0.0 in meteobridge W/m2
04:57 1.7 °F 0.4 °F 1028.0 in Calm   5.5 mph 91 % 0.0 in meteobridge W/m2
05:03 1.6 °F 0.3 °F 1028.0 in Calm   4.3 mph 91 % 0.0 in meteobridge W/m2
05:10 1.4 °F -0.1 °F 1028.0 in WSW 3.5 mph 7.2 mph 90 % 0.0 in meteobridge W/m2
05:16 1.5 °F 0.0 °F 1028.0 in Calm   5.0 mph 90 % 0.0 in meteobridge W/m2
05:25 1.4 °F -0.1 °F 1028.0 in West 4.3 mph 6.1 mph 90 % 0.0 in meteobridge W/m2
05:31 1.4 °F -0.1 °F 1028.0 in WSW 5.0 mph 5.0 mph 90 % 0.0 in meteobridge W/m2
05:38 1.3 °F -0.3 °F 1028.0 in Calm     89 % 0.0 in meteobridge W/m2
05:44 1.3 °F -0.3 °F 1028.0 in Calm     89 % 0.0 in meteobridge W/m2
05:50 1.2 °F -0.3 °F 1028.0 in WSW 6.1 mph 6.1 mph 90 % 0.0 in meteobridge W/m2
05:57 1.2 °F -0.3 °F 1028.0 in Calm     90 % 0.0 in meteobridge W/m2
06:04 1.1 °F -0.4 °F 1028.0 in West 6.9 mph 6.9 mph 90 % 0.0 in meteobridge W/m2
06:10 1.1 °F -0.4 °F 1028.0 in WSW 7.9 mph 7.9 mph 90 % 0.0 in meteobridge W/m2
06:16 1.1 °F -0.4 °F 1028.0 in WSW 6.4 mph 6.4 mph 90 % 0.0 in meteobridge W/m2
06:25 1.1 °F -0.4 °F 1028.0 in WSW 6.4 mph 6.4 mph 90 % 0.0 in meteobridge W/m2
06:31 1.0 °F -0.6 °F 1028.0 in SW 4.0 mph 5.8 mph 89 % 0.0 in meteobridge W/m2
06:44 1.0 °F -0.6 °F 1028.0 in West 9.7 mph 9.7 mph 89 % 0.0 in meteobridge W/m2
06:49 1.0 °F -0.6 °F 1028.0 in West 5.5 mph 5.5 mph 89 % 0.0 in meteobridge W/m2
06:55 1.0 °F -0.9 °F 1028.0 in Calm   4.7 mph 87 % 0.0 in meteobridge W/m2
07:01 0.9 °F -1.0 °F 1028.0 in West 6.9 mph 6.9 mph 87 % 0.0 in meteobridge W/m2
07:08 0.9 °F -1.2 °F 1028.0 in WSW 4.3 mph 4.3 mph 86 % 0.0 in meteobridge W/m2
07:14 0.8 °F -1.3 °F 1028.0 in WSW 12.2 mph 12.2 mph 86 % 0.0 in meteobridge W/m2
07:20 0.8 °F -1.3 °F 1028.0 in WSW 4.7 mph 4.7 mph 86 % 0.0 in meteobridge W/m2
07:27 0.7 °F -1.4 °F 1028.0 in WSW 9.3 mph 9.7 mph 86 % 0.0 in meteobridge W/m2
07:33 0.7 °F -1.4 °F 1028.0 in WSW 2.6 mph 7.6 mph 86 % 0.0 in meteobridge W/m2
07:40 0.7 °F -1.4 °F 1028.0 in West 5.0 mph 5.0 mph 86 % 0.0 in meteobridge W/m2
07:50 0.7 °F -1.4 °F 1028.0 in WSW 4.7 mph 4.7 mph 86 % 0.0 in meteobridge W/m2
07:57 0.7 °F -1.4 °F 1028.0 in Calm     86 % 0.0 in meteobridge W/m2
08:03 0.6 °F -1.5 °F 1028.0 in Calm   1.8 mph 86 % 0.0 in meteobridge W/m2
08:10 0.6 °F -1.5 °F 1028.0 in WSW 1.8 mph 3.2 mph 86 % 0.0 in meteobridge W/m2
08:16 0.5 °F -1.6 °F 1028.0 in WSW 5.8 mph 5.8 mph 86 % 0.0 in meteobridge W/m2
08:23 0.6 °F -1.3 °F 1028.0 in WSW 4.0 mph 4.0 mph 87 % 0.0 in meteobridge W/m2
08:29 0.5 °F -1.4 °F 1028.0 in WNW 3.5 mph 5.0 mph 87 % 0.0 in meteobridge W/m2
08:36 0.5 °F -1.4 °F 1028.0 in WSW 9.3 mph 9.3 mph 87 % 0.0 in meteobridge W/m2
08:42 0.5 °F -1.4 °F 1028.0 in ESE 1.4 mph 10.5 mph 87 % 0.0 in meteobridge W/m2
08:53 0.4 °F -1.5 °F 1029.0 in WSW 1.4 mph 10.1 mph 87 % 0.0 in meteobridge W/m2
08:59 0.4 °F -1.7 °F 1029.0 in WSW 5.5 mph 5.5 mph 86 % 0.0 in meteobridge W/m2
09:04 0.4 °F -1.7 °F 1029.0 in WSW 11.6 mph 11.6 mph 86 % 0.0 in meteobridge W/m2
09:10 0.3 °F -1.8 °F 1028.0 in WNW 12.2 mph 12.2 mph 86 % 0.0 in meteobridge W/m2
09:27 0.4 °F -1.7 °F 1028.0 in WNW 7.9 mph 7.9 mph 86 % 0.0 in meteobridge W/m2
09:33 0.4 °F -1.7 °F 1029.0 in WSW 3.2 mph 3.2 mph 86 % 0.0 in meteobridge W/m2
09:40 0.4 °F -1.7 °F 1029.0 in WSW 5.8 mph 6.4 mph 86 % 0.0 in meteobridge W/m2
09:46 0.5 °F -1.6 °F 1029.0 in WSW 4.7 mph 7.2 mph 86 % 0.0 in meteobridge W/m2
09:53 0.4 °F -1.7 °F 1029.0 in WNW 8.7 mph 8.7 mph 86 % 0.0 in meteobridge W/m2
10:01 0.4 °F -1.7 °F 1029.0 in WSW 6.9 mph 6.9 mph 86 % 0.0 in meteobridge W/m2
10:06 0.5 °F -1.6 °F 1029.0 in WNW 5.5 mph 5.8 mph 86 % 0.0 in meteobridge W/m2
10:12 0.4 °F -1.7 °F 1029.0 in WSW 6.9 mph 6.9 mph 86 % 0.0 in meteobridge W/m2
10:29 0.6 °F -1.6 °F 1029.0 in WSW 1.8 mph 5.0 mph 85 % 0.0 in meteobridge W/m2
10:44 0.5 °F -1.7 °F 1029.0 in West 5.0 mph 9.3 mph 85 % 0.0 in meteobridge W/m2
10:50 0.6 °F -1.6 °F 1029.0 in West 5.0 mph 5.0 mph 85 % 0.0 in meteobridge W/m2
10:58 0.6 °F -1.6 °F 1029.0 in Calm     85 % 0.0 in meteobridge W/m2
11:04 0.7 °F -1.7 °F 1029.0 in WNW 4.0 mph 7.6 mph 84 % 0.0 in meteobridge W/m2
11:17 0.7 °F -1.7 °F 1029.0 in Calm     84 % 0.0 in meteobridge W/m2
11:22 0.8 °F -1.6 °F 1029.0 in WSW 4.3 mph 4.3 mph 84 % 0.0 in meteobridge W/m2
11:28 0.9 °F -1.5 °F 1029.0 in West 4.0 mph 4.0 mph 84 % 0.0 in meteobridge W/m2
11:34 1.0 °F -1.4 °F 1029.0 in WSW 3.5 mph 4.7 mph 84 % 0.0 in meteobridge W/m2
11:41 0.9 °F -1.5 °F 1029.0 in East 6.1 mph 6.1 mph 84 % 0.0 in meteobridge W/m2
11:47 0.9 °F -1.5 °F 1029.0 in WSW 5.8 mph 5.8 mph 84 % 0.0 in meteobridge W/m2
11:52 0.9 °F -1.5 °F 1029.0 in East 2.1 mph 2.1 mph 84 % 0.0 in meteobridge W/m2
11:58 1.1 °F -1.3 °F 1029.0 in WSW 4.0 mph 4.0 mph 84 % 0.0 in meteobridge W/m2
12:04 0.9 °F -1.7 °F 1029.0 in WSW 6.1 mph 6.1 mph 83 % 0.0 in meteobridge W/m2
12:11 1.0 °F -1.6 °F 1029.0 in WSW 4.0 mph 4.0 mph 83 % 0.0 in meteobridge W/m2
12:17 0.9 °F -1.7 °F 1029.0 in WSW 4.0 mph 7.9 mph 83 % 0.0 in meteobridge W/m2
12:22 0.9 °F -1.7 °F 1029.0 in WSW 1.8 mph 5.8 mph 83 % 0.0 in meteobridge W/m2
12:28 0.9 °F -1.7 °F 1029.0 in WSW 1.8 mph 4.0 mph 83 % 0.0 in meteobridge W/m2
12:34 1.0 °F -1.6 °F 1029.0 in WSW 5.5 mph 5.5 mph 83 % 0.0 in meteobridge W/m2
12:41 0.9 °F -1.7 °F 1029.0 in West 7.9 mph 7.9 mph 83 % 0.0 in meteobridge W/m2
12:54 0.9 °F -1.7 °F 1029.0 in WSW 10.1 mph 10.1 mph 83 % 0.0 in meteobridge W/m2
13:02 0.9 °F -1.7 °F 1029.0 in WSW 6.4 mph -1607.4 mph 83 % 0.0 in meteobridge W/m2
13:08 0.9 °F -1.7 °F 1028.0 in WSW 6.4 mph -1607.4 mph 83 % 0.0 in meteobridge W/m2
13:20 0.8 °F -1.9 °F 1028.0 in North -1608.8 mph -1607.4 mph 82 % 0.0 in meteobridge W/m2
13:51 0.8 °F -1.9 °F 1028.0 in WSW 6.1 mph 6.1 mph 82 % 0.0 in meteobridge W/m2
13:57 0.8 °F -1.9 °F 1028.0 in NW 4.0 mph 4.0 mph 82 % 0.0 in meteobridge W/m2
14:11 0.8 °F -2.1 °F 1028.0 in WSW 6.1 mph 6.1 mph 81 % 0.0 in meteobridge W/m2
14:17 0.8 °F -2.1 °F 1028.0 in WSW 6.1 mph -1607.4 mph 81 % 0.0 in meteobridge W/m2
14:35 0.9 °F -2.2 °F 1028.0 in West 4.7 mph 4.7 mph 80 % 0.0 in meteobridge W/m2
14:41 0.8 °F -2.4 °F 1028.0 in WSW 6.9 mph 6.9 mph 79 % 0.0 in meteobridge W/m2
14:47 0.8 °F -2.4 °F 1028.0 in Calm   3.2 mph 79 % 0.0 in meteobridge W/m2
14:53 0.7 °F -2.7 °F 1028.0 in West 3.2 mph 4.0 mph 78 % 0.0 in meteobridge W/m2
14:59 0.7 °F -2.7 °F 1028.0 in WSW 4.7 mph 4.7 mph 78 % 0.0 in meteobridge W/m2
15:06 0.7 °F -2.7 °F 1028.0 in NNW 4.3 mph 4.3 mph 78 % 0.0 in meteobridge W/m2
15:13 0.7 °F -2.7 °F 1028.0 in WSW 4.3 mph -1607.4 mph 78 % 0.0 in meteobridge W/m2
15:19 0.6 °F -3.0 °F 1028.0 in WSW 3.2 mph 5.5 mph 77 % 0.0 in meteobridge W/m2
15:35 0.6 °F -3.3 °F 1028.0 in SW 9.0 mph 9.0 mph 75 % 0.0 in meteobridge W/m2
15:41 0.6 °F -3.3 °F 1028.0 in WSW 4.7 mph 5.5 mph 75 % 0.0 in meteobridge W/m2
15:47 0.6 °F -3.3 °F 1028.0 in WSW 6.9 mph 6.9 mph 75 % 0.0 in meteobridge W/m2
15:56 0.6 °F -3.3 °F 1028.0 in West 4.0 mph 5.0 mph 75 % 0.0 in meteobridge W/m2
15:57 0.6 °F -3.3 °F 1028.0 in WSW 5.5 mph 5.5 mph 75 % 0.0 in meteobridge W/m2
16:03 0.5 °F -3.6 °F 1028.0 in WSW 5.0 mph 6.1 mph 74 % 0.0 in meteobridge W/m2
16:09 0.4 °F -3.7 °F 1028.0 in NE 2.6 mph 2.6 mph 74 % 0.0 in meteobridge W/m2
16:10 0.4 °F -3.7 °F 1028.0 in NE 2.6 mph 2.6 mph 74 % 0.0 in meteobridge W/m2
16:15 0.3 °F -4.0 °F 1028.0 in SW 1.8 mph 1.8 mph 73 % 0.0 in meteobridge W/m2
16:20 0.3 °F -4.0 °F 1028.0 in WSW 6.9 mph 6.9 mph 73 % 0.0 in meteobridge W/m2
16:30 0.2 °F -4.3 °F 1028.0 in WSW 3.2 mph 3.2 mph 72 % 0.0 in meteobridge W/m2
16:37 0.2 °F -4.3 °F 1028.0 in WSW 3.2 mph 3.2 mph 72 % 0.0 in meteobridge W/m2
16:43 0.3 °F -4.2 °F 1028.0 in West 1.4 mph 5.5 mph 72 % 0.0 in meteobridge W/m2
16:49 0.4 °F -4.2 °F 1028.0 in Calm     71 % 0.0 in meteobridge W/m2
16:55 0.3 °F -4.3 °F 1028.0 in West 4.7 mph 4.7 mph 71 % 0.0 in meteobridge W/m2
17:01 0.3 °F -4.3 °F 1028.0 in West 1.8 mph 3.2 mph 71 % 0.0 in meteobridge W/m2
17:07 0.4 °F -4.2 °F 1028.0 in WSW 3.2 mph 3.2 mph 71 % 0.0 in meteobridge W/m2
17:13 0.4 °F -4.2 °F 1028.0 in WSW 3.5 mph 3.5 mph 71 % 0.0 in meteobridge W/m2
17:21 0.4 °F -4.2 °F 1028.0 in Calm   2.6 mph 71 % 0.0 in meteobridge W/m2
17:27 0.4 °F -4.2 °F 1028.0 in WSW 3.2 mph 3.2 mph 71 % 0.0 in meteobridge W/m2
17:33 0.4 °F -4.2 °F 1028.0 in WSW 1.4 mph 2.6 mph 71 % 0.0 in meteobridge W/m2
17:42 0.4 °F -4.4 °F 1028.0 in SW 1.8 mph 5.8 mph 70 % 0.0 in meteobridge W/m2
17:48 0.4 °F -4.4 °F 1028.0 in Calm   5.8 mph 70 % 0.0 in meteobridge W/m2
17:57 0.6 °F -4.1 °F 1028.0 in Calm     71 % 0.0 in meteobridge W/m2
18:09 0.5 °F -3.8 °F 1028.0 in Calm   1.4 mph 73 % 0.0 in meteobridge W/m2
18:15 0.6 °F -3.7 °F 1028.0 in WSW 3.2 mph 3.2 mph 73 % 0.0 in meteobridge W/m2
18:21 0.6 °F -3.3 °F 1028.0 in WSW 2.6 mph 3.2 mph 75 % 0.0 in meteobridge W/m2
18:29 0.6 °F -3.3 °F 1028.0 in Calm   1.8 mph 75 % 0.0 in meteobridge W/m2
18:35 0.5 °F -3.1 °F 1028.0 in WSW 5.5 mph 5.5 mph 77 % 0.0 in meteobridge W/m2
18:42 0.4 °F -3.2 °F 1028.0 in WSW 6.9 mph 6.9 mph 77 % 0.0 in meteobridge W/m2
18:47 0.2 °F -3.2 °F 1028.0 in WSW 4.7 mph 4.7 mph 78 % 0.0 in meteobridge W/m2
18:53 0.2 °F -3.2 °F 1028.0 in WSW 4.0 mph 5.0 mph 78 % 0.0 in meteobridge W/m2
18:59 0.2 °F -3.2 °F 1028.0 in WSW 4.7 mph 4.7 mph 78 % 0.0 in meteobridge W/m2
19:05 0.1 °F -3.3 °F 1028.0 in WSW 5.0 mph 5.0 mph 78 % 0.0 in meteobridge W/m2
19:17 0.1 °F -3.1 °F 1028.0 in West 4.0 mph 4.0 mph 79 % 0.0 in meteobridge W/m2
19:23 -0.1 °F -3.3 °F 1028.0 in SSW 1.8 mph 2.1 mph 79 % 0.0 in meteobridge W/m2
19:29 -0.3 °F -3.5 °F 1028.0 in SW 2.6 mph 5.8 mph 79 % 0.0 in meteobridge W/m2
19:35 -0.2 °F -3.2 °F 1028.0 in NNW 1.4 mph 5.5 mph 80 % 0.0 in meteobridge W/m2
19:43 -0.4 °F -3.4 °F 1028.0 in WSW 4.7 mph 5.5 mph 80 % 0.0 in meteobridge W/m2
19:51 -0.3 °F -3.3 °F 1028.0 in Calm     80 % 0.0 in meteobridge W/m2
19:57 -0.2 °F -3.1 °F 1028.0 in West 3.2 mph 3.2 mph 81 % 0.0 in meteobridge W/m2
19:58 -0.3 °F -3.3 °F 1028.0 in WSW 1.8 mph 2.6 mph 80 % 0.0 in meteobridge W/m2
20:05 -0.2 °F -3.1 °F 1028.0 in Calm     81 % 0.0 in meteobridge W/m2
20:11 -0.2 °F -3.1 °F 1028.0 in WSW 6.1 mph 6.1 mph 81 % 0.0 in meteobridge W/m2
20:17 -0.1 °F -3.0 °F 1028.0 in Calm     81 % 0.0 in meteobridge W/m2
20:23 0.0 °F -2.9 °F 1028.0 in WSW 2.1 mph 4.7 mph 81 % 0.0 in meteobridge W/m2
20:29 -0.1 °F -3.0 °F 1028.0 in WSW 9.3 mph -1607.4 mph 81 % 0.0 in meteobridge W/m2
20:35 -0.2 °F -3.2 °F 1028.0 in WSW 6.4 mph 6.4 mph 80 % 0.0 in meteobridge W/m2
20:41 -0.2 °F -3.2 °F 1028.0 in WSW 1.4 mph 3.2 mph 80 % 0.0 in meteobridge W/m2
20:47 -0.2 °F -3.2 °F 1028.0 in WSW 8.7 mph 8.7 mph 80 % 0.0 in meteobridge W/m2
20:53 -0.1 °F -3.1 °F 1028.0 in WSW 2.6 mph 4.3 mph 80 % 0.0 in meteobridge W/m2
21:04 -0.3 °F -3.3 °F 1028.0 in WSW 11.9 mph 11.9 mph 80 % 0.0 in meteobridge W/m2
21:11 -0.3 °F -3.3 °F 1028.0 in West 1.4 mph 1.8 mph 80 % 0.0 in meteobridge W/m2
21:18 -0.2 °F -3.2 °F 1028.0 in West 4.3 mph 4.3 mph 80 % 0.0 in meteobridge W/m2
21:24 -0.2 °F -3.2 °F 1028.0 in Calm   4.7 mph 80 % 0.0 in meteobridge W/m2
21:30 -0.1 °F -3.1 °F 1028.0 in WSW 5.8 mph 7.6 mph 80 % 0.0 in meteobridge W/m2
21:36 -0.1 °F -3.1 °F 1028.0 in Calm   4.7 mph 80 % 0.0 in meteobridge W/m2
21:42 -0.1 °F -3.1 °F 1028.0 in South 1.4 mph 4.7 mph 80 % 0.0 in meteobridge W/m2
21:48 -0.1 °F -3.1 °F 1027.0 in West 5.5 mph 5.5 mph 80 % 0.0 in meteobridge W/m2
21:54 -0.1 °F -3.1 °F 1027.0 in WSW 4.7 mph 4.7 mph 80 % 0.0 in meteobridge W/m2
22:00 -0.1 °F -3.1 °F 1027.0 in WSW 6.1 mph 6.1 mph 80 % 0.0 in meteobridge W/m2
22:06 -0.1 °F -3.1 °F 1027.0 in ENE 3.5 mph 5.8 mph 80 % 0.0 in meteobridge W/m2
22:12 0.0 °F -3.0 °F 1027.0 in West 1.8 mph 1.8 mph 80 % 0.0 in meteobridge W/m2
22:18 -0.1 °F -3.1 °F 1027.0 in WSW 9.0 mph 9.0 mph 80 % 0.0 in meteobridge W/m2
22:28 -0.1 °F -3.1 °F 1027.0 in WSW 4.0 mph 9.0 mph 80 % 0.0 in meteobridge W/m2
22:35 0.0 °F -3.0 °F 1027.0 in WSW 4.7 mph 5.8 mph 80 % 0.0 in meteobridge W/m2
22:41 0.0 °F -2.9 °F 1027.0 in WSW 4.3 mph 5.0 mph 81 % 0.0 in meteobridge W/m2
22:47 -0.1 °F -3.1 °F 1027.0 in WSW 5.5 mph 5.5 mph 80 % 0.0 in meteobridge W/m2
22:54 -0.1 °F -3.0 °F 1027.0 in WSW 2.6 mph 4.3 mph 81 % 0.0 in meteobridge W/m2
23:00 0.0 °F -2.9 °F 1027.0 in Calm   2.6 mph 81 % 0.0 in meteobridge W/m2
23:07 0.0 °F -2.9 °F 1027.0 in WSW 4.0 mph 4.0 mph 81 % 0.0 in meteobridge W/m2
23:13 -0.1 °F -3.0 °F 1027.0 in WSW 3.2 mph 5.5 mph 81 % 0.0 in meteobridge W/m2
23:20 -0.1 °F -3.0 °F 1027.0 in West 6.4 mph 6.4 mph 81 % 0.0 in meteobridge W/m2
23:26 -0.1 °F -3.0 °F 1027.0 in WSW 8.7 mph 8.7 mph 81 % 0.0 in meteobridge W/m2
23:34 -0.3 °F -3.2 °F 1027.0 in WSW 3.2 mph 4.7 mph 81 % 0.0 in meteobridge W/m2
23:41 -0.4 °F -3.1 °F 1027.0 in Calm   4.3 mph 82 % 0.0 in meteobridge W/m2
23:47 -0.2 °F -2.9 °F 1027.0 in WSW 4.0 mph 4.0 mph 82 % 0.0 in meteobridge W/m2
23:53 -0.1 °F -2.8 °F 1027.0 in West 2.1 mph 6.4 mph 82 % 0.0 in meteobridge W/m2
23:59 0.0 °F -2.7 °F 1027.0 in Calm   5.5 mph 82 % 0.0 in meteobridge W/m2
Juneau County Weather
Compliments of Weather Underground - 2.25 mb